createdAt,value
2019-02-02T00:00:23.304Z,20.80
2019-02-02T00:02:51.904Z,16.67
2019-02-02T00:05:20.602Z,20.43
2019-02-02T00:07:49.288Z,22.87
2019-02-02T00:10:18.207Z,16.57
2019-02-02T00:12:46.859Z,20.67
2019-02-02T00:15:15.748Z,24.73
2019-02-02T00:17:44.388Z,20.67
2019-02-02T00:20:13.279Z,21.83
2019-02-02T00:22:42.108Z,18.20
2019-02-02T00:25:11.290Z,20.57
2019-02-02T00:27:41.536Z,17.50
2019-02-02T00:30:20.916Z,19.83
2019-02-02T00:32:49.682Z,21.33
2019-02-02T00:35:18.553Z,17.07
2019-02-02T00:37:47.187Z,20.87
2019-02-02T00:40:20.160Z,24.13
2019-02-02T00:42:49.194Z,19.80
2019-02-02T00:45:20.018Z,14.93
2019-02-02T00:47:50.195Z,21.23
2019-02-02T00:50:19.717Z,20.60
2019-02-02T00:52:48.461Z,24.40
2019-02-02T00:55:19.725Z,21.60
2019-02-02T00:57:53.613Z,22.07
2019-02-02T01:00:26.426Z,19.40
2019-02-02T01:02:55.677Z,20.27
2019-02-02T01:05:24.725Z,17.40
2019-02-02T01:07:54.335Z,15.53
2019-02-02T01:10:29.513Z,21.30
2019-02-02T01:12:59.829Z,20.47
2019-02-02T01:15:28.724Z,16.67
2019-02-02T01:17:57.480Z,16.60
2019-02-02T01:20:26.500Z,24.83
2019-02-02T01:22:55.351Z,18.40
2019-02-02T01:25:24.050Z,20.33
2019-02-02T01:28:04.463Z,14.50
2019-02-02T01:30:24.961Z,17.70
2019-02-02T01:32:54.081Z,21.97
2019-02-02T01:35:22.871Z,16.53
2019-02-02T01:37:51.779Z,16.00
2019-02-02T01:40:25.250Z,16.60
2019-02-02T01:42:54.079Z,23.50
2019-02-02T01:45:25.427Z,18.70
2019-02-02T01:47:54.635Z,19.87
2019-02-02T01:50:25.869Z,17.33
2019-02-02T01:52:54.601Z,21.17
2019-02-02T01:55:23.366Z,17.50
2019-02-02T01:57:52.952Z,15.20
2019-02-02T02:00:24.455Z,20.77
2019-02-02T02:02:53.548Z,13.80
2019-02-02T02:05:22.782Z,16.50
2019-02-02T02:07:51.638Z,15.97
2019-02-02T02:10:21.298Z,21.20
2019-02-02T02:12:50.283Z,21.00
2019-02-02T02:15:20.155Z,20.43
2019-02-02T02:17:49.031Z,17.97
2019-02-02T02:20:24.273Z,20.60
2019-02-02T02:22:52.380Z,17.67
2019-02-02T02:25:22.090Z,16.17
2019-02-02T02:27:51.390Z,18.63
2019-02-02T02:30:21.865Z,18.30
2019-02-02T02:32:51.110Z,21.33
2019-02-02T02:35:19.939Z,18.07
2019-02-02T02:37:48.848Z,17.20
2019-02-02T02:40:20.301Z,18.80
2019-02-02T02:42:49.339Z,17.37
2019-02-02T02:45:19.887Z,16.63
2019-02-02T02:47:48.759Z,15.13
2019-02-02T02:50:22.220Z,20.13
2019-02-02T02:52:51.328Z,16.43
2019-02-02T02:55:20.086Z,18.43
2019-02-02T02:57:49.875Z,19.60
2019-02-02T03:00:20.729Z,18.27
2019-02-02T03:02:49.859Z,20.07
2019-02-02T03:05:19.237Z,18.80
2019-02-02T03:07:49.217Z,20.63
2019-02-02T03:10:22.922Z,22.50
2019-02-02T03:12:51.724Z,23.07
2019-02-02T03:15:20.792Z,22.53
2019-02-02T03:17:50.647Z,20.20
2019-02-02T03:20:19.724Z,21.63
2019-02-02T03:22:48.434Z,21.67
2019-02-02T03:25:20.138Z,23.27
2019-02-02T03:27:50.797Z,24.80
2019-02-02T03:30:21.160Z,23.50
2019-02-02T03:32:50.012Z,23.47
2019-02-02T03:35:21.187Z,18.10
2019-02-02T03:37:49.966Z,28.27
2019-02-02T03:40:20.705Z,26.03
2019-02-02T03:42:49.453Z,28.70
2019-02-02T03:45:20.710Z,24.10
2019-02-02T03:47:50.744Z,21.20
2019-02-02T03:50:20.042Z,33.37
2019-02-02T03:52:49.138Z,26.93
2019-02-02T03:55:18.010Z,25.47
2019-02-02T03:57:46.773Z,36.53
2019-02-02T04:00:18.169Z,30.60
2019-02-02T04:02:46.956Z,33.00
2019-02-02T04:05:25.479Z,24.47
2019-02-02T04:07:54.732Z,27.00
2019-02-02T04:10:23.961Z,33.90
2019-02-02T04:12:52.965Z,33.53
2019-02-02T04:15:22.547Z,34.13
2019-02-02T04:17:51.340Z,34.97
2019-02-02T04:20:21.855Z,32.23
2019-02-02T04:22:50.935Z,30.67
2019-02-02T04:25:21.305Z,37.07
2019-02-02T04:27:50.182Z,29.17
2019-02-02T04:30:21.790Z,31.17
2019-02-02T04:32:50.477Z,32.17
2019-02-02T04:35:19.307Z,27.10
2019-02-02T04:37:48.382Z,34.80
2019-02-02T04:40:17.159Z,32.20
2019-02-02T04:42:46.036Z,29.57
2019-02-02T04:45:16.419Z,27.37
2019-02-02T04:47:45.104Z,31.20
2019-02-02T04:50:16.488Z,25.90
2019-02-02T04:52:45.254Z,25.10
2019-02-02T04:55:15.642Z,34.57
2019-02-02T04:57:44.735Z,26.43
2019-02-02T05:00:19.501Z,25.10
2019-02-02T05:02:48.267Z,28.03
2019-02-02T05:05:18.205Z,24.67
2019-02-02T05:07:47.096Z,31.57
2019-02-02T05:10:20.531Z,32.87
2019-02-02T05:12:49.284Z,32.60
2019-02-02T05:15:18.586Z,30.40
2019-02-02T05:17:47.616Z,35.60
2019-02-02T05:20:18.312Z,28.43
2019-02-02T05:22:47.412Z,27.10
2019-02-02T05:25:16.293Z,27.40
2019-02-02T05:27:45.132Z,32.93
2019-02-02T05:30:21.348Z,32.10
2019-02-02T05:32:50.124Z,27.80
2019-02-02T05:35:19.026Z,30.63
2019-02-02T05:37:49.640Z,29.50
2019-02-02T05:40:20.586Z,29.80
2019-02-02T05:42:49.378Z,32.53
2019-02-02T05:45:20.521Z,31.50
2019-02-02T05:47:49.612Z,33.87
2019-02-02T05:50:20.443Z,30.33
2019-02-02T05:52:49.565Z,31.13
2019-02-02T05:55:20.024Z,25.97
2019-02-02T05:57:48.807Z,31.53
2019-02-02T06:00:34.157Z,29.33
2019-02-02T06:03:02.786Z,28.50
2019-02-02T06:05:31.540Z,28.33
2019-02-02T06:08:00.183Z,34.63
2019-02-02T06:10:28.869Z,26.63
2019-02-02T06:12:58.001Z,30.03
2019-02-02T06:15:28.579Z,30.93
2019-02-02T06:17:57.826Z,27.40
2019-02-02T06:20:26.723Z,32.50
2019-02-02T06:22:55.557Z,32.90
2019-02-02T06:25:24.960Z,31.33
2019-02-02T06:27:53.807Z,27.13
2019-02-02T06:30:24.498Z,37.23
2019-02-02T06:32:53.384Z,33.90
2019-02-02T06:35:22.148Z,26.07
2019-02-02T06:37:50.862Z,26.37
2019-02-02T06:40:19.572Z,25.80
2019-02-02T06:42:48.225Z,27.37
2019-02-02T06:45:26.104Z,26.13
2019-02-02T06:47:55.205Z,31.77
2019-02-02T06:50:24.398Z,24.27
2019-02-02T06:52:53.535Z,29.27
2019-02-02T06:55:22.344Z,30.70
2019-02-02T06:57:51.006Z,37.30
2019-02-02T07:00:26.237Z,23.13
2019-02-02T07:02:53.176Z,28.97
2019-02-02T07:05:22.039Z,29.33
2019-02-02T07:07:50.833Z,25.73
2019-02-02T07:10:24.927Z,26.67
2019-02-02T07:12:54.068Z,22.73
2019-02-02T07:15:25.056Z,22.73
2019-02-02T07:17:53.852Z,23.13
2019-02-02T07:20:22.640Z,22.43
2019-02-02T07:22:51.421Z,25.00
2019-02-02T07:25:20.209Z,27.50
2019-02-02T07:27:49.006Z,25.70
2019-02-02T07:30:28.857Z,33.27
2019-02-02T07:32:52.939Z,27.50
2019-02-02T07:35:21.870Z,23.10
2019-02-02T07:37:50.842Z,23.10
2019-02-02T07:40:21.050Z,31.47
2019-02-02T07:42:49.957Z,27.43
2019-02-02T07:45:24.557Z,26.50
2019-02-02T07:47:53.421Z,25.73
2019-02-02T07:50:22.726Z,24.43
2019-02-02T07:52:51.450Z,24.20
2019-02-02T07:55:21.694Z,23.97
2019-02-02T07:57:52.326Z,24.93
2019-02-02T08:00:39.405Z,26.60
2019-02-02T08:02:57.412Z,27.03
2019-02-02T08:05:26.236Z,28.10
2019-02-02T08:07:55.948Z,19.63
2019-02-02T08:10:24.701Z,23.90
2019-02-02T08:12:53.574Z,31.10
2019-02-02T08:15:24.768Z,26.40
2019-02-02T08:17:53.549Z,22.43
2019-02-02T08:20:22.284Z,27.33
2019-02-02T08:22:51.531Z,21.80
2019-02-02T08:25:20.206Z,25.60
2019-02-02T08:27:49.208Z,32.57
2019-02-02T08:30:26.094Z,25.20
2019-02-02T08:32:54.827Z,30.60
2019-02-02T08:35:23.946Z,24.87
2019-02-02T08:37:53.058Z,22.10
2019-02-02T08:40:22.008Z,29.93
2019-02-02T08:42:50.912Z,24.97
2019-02-02T08:45:20.089Z,24.63
2019-02-02T08:47:49.210Z,33.40
2019-02-02T08:50:24.262Z,27.20
2019-02-02T08:52:53.101Z,27.50
2019-02-02T08:55:21.863Z,24.90
2019-02-02T08:57:50.672Z,21.90
2019-02-02T09:00:20.362Z,26.37
2019-02-02T09:02:49.151Z,25.63
2019-02-02T09:05:20.158Z,25.73
2019-02-02T09:07:49.054Z,30.53
2019-02-02T09:10:25.882Z,27.80
2019-02-02T09:12:54.664Z,33.23
2019-02-02T09:15:23.514Z,28.27
2019-02-02T09:17:52.227Z,30.40
2019-02-02T09:20:21.160Z,36.30
2019-02-02T09:22:49.882Z,36.40
2019-02-02T09:25:19.524Z,35.33
2019-02-02T09:27:48.309Z,35.03
2019-02-02T09:30:25.848Z,37.13
2019-02-02T09:32:55.030Z,35.93
2019-02-02T09:35:23.799Z,45.47
2019-02-02T09:37:53.125Z,43.37
2019-02-02T09:40:25.468Z,44.23
2019-02-02T09:42:53.442Z,37.73
2019-02-02T09:45:23.856Z,45.77
2019-02-02T09:47:52.708Z,39.90
2019-02-02T09:50:26.034Z,57.47
2019-02-02T09:52:54.991Z,54.97
2019-02-02T09:55:25.507Z,68.53
2019-02-02T09:57:56.683Z,56.77
2019-02-02T10:00:27.650Z,45.70
2019-02-02T10:02:57.846Z,53.67
2019-02-02T10:05:26.909Z,50.17
2019-02-02T10:07:57.749Z,57.33
2019-02-02T10:10:31.212Z,63.23
2019-02-02T10:13:00.263Z,53.07
2019-02-02T10:15:28.961Z,58.30
2019-02-02T10:17:58.192Z,59.67
2019-02-02T10:20:31.237Z,54.50
2019-02-02T10:23:00.921Z,61.30
2019-02-02T10:25:31.279Z,70.03
2019-02-02T10:28:00.640Z,59.47
2019-02-02T10:30:36.850Z,67.33
2019-02-02T10:33:06.285Z,64.50
2019-02-02T10:35:35.554Z,56.97
2019-02-02T10:38:04.794Z,52.63
2019-02-02T10:40:33.912Z,58.30
2019-02-02T10:43:02.797Z,59.23
2019-02-02T10:45:32.041Z,54.23
2019-02-02T10:48:01.337Z,52.53
2019-02-02T10:50:30.194Z,67.87
2019-02-02T10:53:00.680Z,58.07
2019-02-02T10:55:29.828Z,65.03
2019-02-02T10:57:59.529Z,60.80
2019-02-02T11:00:30.827Z,63.50
2019-02-02T11:02:59.788Z,56.33
2019-02-02T11:05:28.547Z,60.40
2019-02-02T11:07:57.986Z,59.67
2019-02-02T11:10:28.717Z,66.93
2019-02-02T11:12:58.196Z,69.33
2019-02-02T11:15:27.208Z,68.40
2019-02-02T11:17:56.047Z,64.77
2019-02-02T11:20:32.788Z,56.60
2019-02-02T11:23:01.574Z,65.43
2019-02-02T11:25:30.665Z,73.83
2019-02-02T11:28:01.067Z,71.20
2019-02-02T11:30:30.551Z,82.53
2019-02-02T11:32:59.774Z,76.87
2019-02-02T11:35:28.862Z,80.03
2019-02-02T11:37:57.952Z,92.87
2019-02-02T11:40:31.555Z,77.17
2019-02-02T11:43:00.532Z,90.57
2019-02-02T11:45:29.651Z,77.73
2019-02-02T11:47:59.050Z,77.77
2019-02-02T11:50:28.414Z,82.40
2019-02-02T11:52:57.531Z,93.33
2019-02-02T11:55:28.666Z,76.67
2019-02-02T11:57:57.326Z,96.87
2019-02-02T12:00:31.124Z,93.73
2019-02-02T12:03:04.214Z,103.30
2019-02-02T12:05:30.502Z,89.10
2019-02-02T12:07:59.377Z,82.63
2019-02-02T12:10:30.503Z,85.43
2019-02-02T12:12:59.494Z,86.10
2019-02-02T12:15:29.802Z,84.77
2019-02-02T12:17:58.573Z,87.77
2019-02-02T12:20:27.902Z,98.13
2019-02-02T12:22:57.074Z,104.90
2019-02-02T12:25:26.452Z,91.40
2019-02-02T12:27:55.370Z,93.23
2019-02-02T12:30:26.527Z,86.30
2019-02-02T12:32:56.357Z,77.73
2019-02-02T12:35:26.759Z,87.87
2019-02-02T12:37:55.978Z,79.97
2019-02-02T12:40:26.688Z,84.63
2019-02-02T12:42:55.631Z,80.70
2019-02-02T12:45:36.345Z,76.80
2019-02-02T12:48:05.959Z,82.00
2019-02-02T12:50:35.831Z,68.83
2019-02-02T12:53:05.252Z,75.33
2019-02-02T12:55:34.277Z,73.40
2019-02-02T12:58:03.286Z,65.27
2019-02-02T13:00:31.902Z,61.03
2019-02-02T13:03:00.944Z,60.23
2019-02-02T13:05:30.004Z,52.50
2019-02-02T13:07:58.911Z,54.60
2019-02-02T13:10:29.280Z,65.70
2019-02-02T13:12:58.096Z,59.10
2019-02-02T13:15:27.219Z,67.87
2019-02-02T13:17:56.025Z,64.97
2019-02-02T13:20:26.490Z,72.83
2019-02-02T13:22:55.333Z,67.63
2019-02-02T13:25:24.921Z,64.93
2019-02-02T13:27:53.990Z,70.93
2019-02-02T13:30:28.025Z,58.07
2019-02-02T13:32:56.831Z,60.37
2019-02-02T13:35:26.626Z,61.70
2019-02-02T13:37:55.392Z,64.00
2019-02-02T13:40:25.566Z,64.47
2019-02-02T13:42:54.390Z,65.00
2019-02-02T13:45:23.791Z,74.77
2019-02-02T13:47:52.484Z,60.60
2019-02-02T13:50:21.638Z,60.20
2019-02-02T13:52:52.123Z,64.17
2019-02-02T13:55:21.339Z,74.20
2019-02-02T13:57:50.027Z,64.40
2019-02-02T14:00:24.412Z,80.53
2019-02-02T14:03:02.453Z,61.20
2019-02-02T14:05:23.996Z,69.67
2019-02-02T14:07:52.952Z,66.87
2019-02-02T14:10:30.956Z,63.03
2019-02-02T14:12:59.798Z,63.67
2019-02-02T14:15:28.791Z,71.83
2019-02-02T14:17:57.579Z,66.07
2019-02-02T14:20:27.454Z,64.37
2019-02-02T14:22:56.605Z,66.63
2019-02-02T14:25:25.372Z,79.33
2019-02-02T14:27:54.292Z,71.73
2019-02-02T14:30:24.836Z,64.53
2019-02-02T14:32:54.869Z,70.50
2019-02-02T14:35:25.833Z,74.93
2019-02-02T14:37:54.670Z,67.87
2019-02-02T14:40:23.562Z,81.40
2019-02-02T14:42:52.246Z,77.70
2019-02-02T14:45:23.362Z,84.70
2019-02-02T14:47:52.128Z,75.43
2019-02-02T14:50:21.983Z,78.10
2019-02-02T14:52:51.870Z,76.00
2019-02-02T14:55:22.931Z,95.57
2019-02-02T14:57:51.624Z,78.57
2019-02-02T15:00:22.414Z,93.40
2019-02-02T15:02:51.122Z,89.93
2019-02-02T15:05:21.829Z,85.80
2019-02-02T15:07:50.632Z,85.87
2019-02-02T15:10:20.450Z,100.37
2019-02-02T15:12:49.665Z,93.90
2019-02-02T15:15:18.953Z,89.67
2019-02-02T15:17:47.750Z,91.20
2019-02-02T15:20:23.569Z,100.47
2019-02-02T15:22:52.424Z,85.67
2019-02-02T15:25:22.400Z,89.53
2019-02-02T15:27:51.043Z,80.10
2019-02-02T15:30:25.291Z,100.07
2019-02-02T15:32:54.089Z,83.43
2019-02-02T15:35:24.293Z,89.17
2019-02-02T15:37:53.055Z,74.83
2019-02-02T15:40:21.884Z,89.33
2019-02-02T15:42:50.520Z,91.90
2019-02-02T15:45:25.146Z,79.13
2019-02-02T15:47:53.936Z,104.00
2019-02-02T15:50:22.822Z,91.90
2019-02-02T15:52:51.715Z,86.27
2019-02-02T15:55:23.055Z,91.50
2019-02-02T15:57:51.850Z,96.00
2019-02-02T16:00:28.955Z,89.87
2019-02-02T16:02:58.179Z,89.93
2019-02-02T16:05:27.547Z,108.23
2019-02-02T16:07:57.504Z,109.03
2019-02-02T16:10:31.874Z,104.57
2019-02-02T16:13:01.036Z,106.53
2019-02-02T16:15:29.800Z,96.33
2019-02-02T16:17:58.642Z,106.50
2019-02-02T16:20:30.172Z,115.93
2019-02-02T16:22:58.967Z,105.90
2019-02-02T16:25:27.776Z,117.40
2019-02-02T16:28:00.470Z,109.80
2019-02-02T16:30:30.089Z,104.00
2019-02-02T16:32:59.160Z,121.03
2019-02-02T16:35:28.068Z,104.63
2019-02-02T16:37:57.256Z,103.17
2019-02-02T16:40:32.269Z,102.90
2019-02-02T16:43:00.876Z,110.10
2019-02-02T16:45:31.466Z,118.83
2019-02-02T16:48:01.682Z,121.70
2019-02-02T16:50:30.362Z,117.00
2019-02-02T16:53:00.251Z,120.33
2019-02-02T16:55:29.270Z,117.77
2019-02-02T16:57:57.959Z,112.67
2019-02-02T17:00:32.816Z,99.17
2019-02-02T17:03:01.883Z,121.67
2019-02-02T17:05:30.818Z,93.23
2019-02-02T17:07:59.594Z,110.53
2019-02-02T17:10:30.184Z,95.50
2019-02-02T17:12:58.963Z,99.97
2019-02-02T17:15:27.795Z,104.60
2019-02-02T17:17:56.524Z,96.43
2019-02-02T17:20:28.076Z,97.27
2019-02-02T17:22:57.861Z,94.77
2019-02-02T17:25:26.580Z,111.97
2019-02-02T17:27:55.379Z,111.23
2019-02-02T17:30:27.739Z,111.43
2019-02-02T17:32:59.636Z,114.27
2019-02-02T17:35:28.636Z,105.27
2019-02-02T17:37:57.610Z,115.47
2019-02-02T17:40:30.376Z,97.13
2019-02-02T17:42:59.192Z,98.17
2019-02-02T17:45:28.389Z,106.03
2019-02-02T17:47:57.364Z,98.97
2019-02-02T17:50:28.379Z,88.53
2019-02-02T17:52:57.500Z,100.97
2019-02-02T17:55:26.277Z,101.80
2019-02-02T17:57:56.125Z,97.30
2019-02-02T18:00:40.847Z,110.13
2019-02-02T18:03:09.616Z,110.30
2019-02-02T18:05:38.458Z,99.83
2019-02-02T18:08:07.214Z,103.43
2019-02-02T18:10:36.091Z,106.97
2019-02-02T18:13:05.274Z,107.50
2019-02-02T18:15:34.059Z,99.90
2019-02-02T18:18:02.994Z,92.20
2019-02-02T18:20:31.639Z,94.97
2019-02-02T18:23:00.419Z,95.87
2019-02-02T18:25:31.168Z,95.63
2019-02-02T18:27:59.853Z,109.70
2019-02-02T18:30:29.590Z,104.97
2019-02-02T18:32:58.435Z,102.00
2019-02-02T18:35:27.578Z,108.40
2019-02-02T18:37:56.319Z,103.63
2019-02-02T18:40:25.891Z,101.43
2019-02-02T18:42:54.811Z,113.10
2019-02-02T18:45:26.207Z,100.17
2019-02-02T18:47:54.844Z,94.93
2019-02-02T18:50:23.864Z,111.17
2019-02-02T18:52:54.452Z,110.17
2019-02-02T18:55:27.766Z,120.43
2019-02-02T18:57:56.666Z,107.47
2019-02-02T19:00:25.533Z,110.90
2019-02-02T19:02:54.294Z,106.63
2019-02-02T19:05:23.424Z,108.10
2019-02-02T19:07:52.151Z,121.37
2019-02-02T19:10:32.901Z,117.93
2019-02-02T19:13:01.652Z,110.50
2019-02-02T19:15:30.398Z,132.10
2019-02-02T19:17:59.191Z,110.27
2019-02-02T19:20:29.269Z,124.10
2019-02-02T19:22:57.964Z,128.97
2019-02-02T19:25:27.132Z,114.00
2019-02-02T19:27:55.886Z,111.47
2019-02-02T19:30:27.700Z,122.60
2019-02-02T19:32:58.056Z,118.17
2019-02-02T19:35:27.213Z,124.73
2019-02-02T19:37:55.970Z,135.40
2019-02-02T19:40:24.903Z,113.03
2019-02-02T19:42:53.605Z,108.27
2019-02-02T19:45:25.239Z,111.90
2019-02-02T19:47:53.809Z,132.07
2019-02-02T19:50:25.130Z,114.13
2019-02-02T19:52:54.390Z,114.43
2019-02-02T19:55:23.164Z,124.03
2019-02-02T19:57:51.886Z,120.13
2019-02-02T20:00:23.344Z,101.90
2019-02-02T20:02:52.229Z,120.20
2019-02-02T20:05:28.733Z,108.17
2019-02-02T20:07:51.490Z,169.83
2019-02-02T20:10:20.709Z,112.23
2019-02-02T20:12:49.875Z,110.13
2019-02-02T20:15:21.175Z,107.77
2019-02-02T20:17:50.034Z,98.83
2019-02-02T20:20:26.134Z,99.30
2019-02-02T20:22:55.415Z,104.37
2019-02-02T20:25:24.563Z,105.10
2019-02-02T20:27:53.613Z,104.70
2019-02-02T20:30:27.515Z,82.93
2019-02-02T20:32:57.054Z,103.77
2019-02-02T20:35:25.863Z,91.03
2019-02-02T20:37:54.603Z,113.47
2019-02-02T20:40:25.185Z,105.03
2019-02-02T20:42:54.362Z,100.60
2019-02-02T20:45:31.706Z,79.63
2019-02-02T20:48:00.518Z,91.43
2019-02-02T20:50:29.721Z,99.80
2019-02-02T20:52:58.584Z,84.13
2019-02-02T20:55:30.033Z,85.80
2019-02-02T20:57:59.047Z,86.30
2019-02-02T21:00:29.959Z,83.90
2019-02-02T21:02:58.948Z,84.80
2019-02-02T21:05:27.779Z,87.33
2019-02-02T21:07:56.640Z,86.23
2019-02-02T21:10:25.965Z,93.23
2019-02-02T21:12:55.061Z,83.47
2019-02-02T21:15:23.850Z,94.97
2019-02-02T21:17:52.886Z,82.43
2019-02-02T21:20:30.023Z,80.83
2019-02-02T21:22:59.100Z,104.10
2019-02-02T21:25:29.787Z,92.60
2019-02-02T21:27:58.287Z,92.97
2019-02-02T21:30:32.065Z,94.70
2019-02-02T21:33:00.855Z,94.03
2019-02-02T21:35:29.708Z,87.80
2019-02-02T21:37:58.594Z,93.17
2019-02-02T21:40:29.594Z,89.93
2019-02-02T21:42:58.908Z,97.40
2019-02-02T21:45:27.658Z,100.67
2019-02-02T21:47:57.018Z,90.90
2019-02-02T21:50:27.111Z,80.60
2019-02-02T21:52:56.263Z,98.83
2019-02-02T21:55:27.351Z,93.30
2019-02-02T21:57:56.450Z,85.07
2019-02-02T22:00:28.325Z,101.20
2019-02-02T22:02:57.190Z,83.60
2019-02-02T22:05:26.191Z,73.60
2019-02-02T22:07:55.267Z,85.27
2019-02-02T22:10:24.004Z,83.83
2019-02-02T22:12:53.343Z,90.03
2019-02-02T22:15:24.317Z,101.90
2019-02-02T22:17:53.064Z,94.20
2019-02-02T22:20:21.849Z,95.77
2019-02-02T22:22:50.868Z,93.77
2019-02-02T22:25:22.884Z,104.43
2019-02-02T22:27:53.102Z,113.57
2019-02-02T22:30:26.892Z,113.17
2019-02-02T22:32:55.947Z,119.67
2019-02-02T22:35:24.915Z,104.07
2019-02-02T22:37:53.750Z,132.43
2019-02-02T22:40:27.285Z,121.73
2019-02-02T22:42:56.452Z,127.37
2019-02-02T22:45:25.388Z,123.10
2019-02-02T22:47:54.199Z,113.87
2019-02-02T22:50:25.155Z,121.27
2019-02-02T22:52:54.129Z,130.17
2019-02-02T22:55:23.959Z,114.33
2019-02-02T22:57:53.357Z,130.80
2019-02-02T23:00:52.411Z,123.47
2019-02-02T23:03:30.251Z,142.73
2019-02-02T23:06:14.192Z,107.13
2019-02-02T23:09:05.189Z,121.77
2019-02-02T23:11:45.676Z,112.43
2019-02-02T23:14:27.874Z,104.50
2019-02-02T23:16:56.649Z,123.33
2019-02-02T23:19:25.322Z,109.63
2019-02-02T23:21:54.511Z,120.17
2019-02-02T23:24:23.272Z,128.87
2019-02-02T23:26:52.267Z,106.10
2019-02-02T23:29:21.092Z,96.80
2019-02-02T23:31:50.082Z,105.53
2019-02-02T23:34:18.692Z,102.33
2019-02-02T23:36:52.913Z,98.00
2019-02-02T23:39:17.979Z,117.53
2019-02-02T23:41:47.099Z,98.80
2019-02-02T23:44:15.819Z,88.60
2019-02-02T23:46:44.513Z,96.50
2019-02-02T23:49:13.192Z,91.63
2019-02-02T23:51:41.871Z,94.13
2019-02-02T23:54:11.068Z,97.53
2019-02-02T23:56:41.503Z,81.77
2019-02-02T23:59:10.524Z,92.90
